메인 페이지
METAR-TAF:

METAR-TAF

공항 :

트루히요, 페루

위도: 08-06S, 경도: 079-02W, 고도: 26m

현재 날씨관측

예보는 12분 전, 02:00시(UTC)에 발표되었습니다.
남남동8kt
온도 23°C
습도 89%
기압 1013 hPa
시정: 8000m
시계 내 안개

METAR: SPRU 260200Z 15008KT 8000 VCFG NSC 23/21 Q1013 RMK PP000

시각: 21:12 (02:12 UTC)

예보

예보는 3 시간 12분 전, 23:00시(UTC)에 발표되었습니다.
예보 대상 시간: 26일 00시부터 26일 24시까지 (UTC)
남남동8kt
시정: 7000m
고도 4000ft 상공 구름 많음
전환 중
26일 06시부터 26일 09시까지 (UTC)
동남동5kt
전환 중
26일 10시부터 26일 13시까지 (UTC)
시정: 4500m
박무
전환 중
26일 14시부터 26일 17시까지 (UTC)
10kt
시정 10km 이상
1500m 미만 상공 구름 및 적란운 없음

TAF: SPRU 252300Z 2600/2624 15008KT 7000 BKN040 TX26/2619Z TN23/2611Z BECMG 2606/2609 12005KT BECMG 2610/2613 4500 BR BECMG 2614/2617 18010KT CAVOK

4,000개 이상의 공항 관측 자료 및 예보 (METAR 및 TAF 보고).

지도상에서 검색 가능한 기상관측소가 노란 점과 빨간 점으로 표시되어 있습니다.

기상관측소 명을 보려면 표시 위로 마우스를 이동하세요.

날씨 관측과 예보를 보려면 클릭하세요.

지도 변경 : 확대하려면 엑스 표시가 있는 녹색 버튼, 축소하려면 빼기 표시가 있는 녹색 버튼, 다음 페이지의 지도를 보려면 녹색 화살표를 클릭하세요.


METAR-TAF: